createdAt,value
2022-07-31T04:48:50.694Z,99.90
2022-07-31T04:53:44.529Z,99.90
2022-07-31T05:12:31.754Z,99.90
2022-07-31T05:17:25.710Z,99.90
2022-07-31T05:22:48.735Z,99.90
2022-07-31T05:28:03.956Z,99.90
2022-07-31T05:33:05.495Z,99.90
2022-07-31T05:37:59.096Z,99.90
2022-07-31T05:43:11.072Z,99.90
2022-07-31T05:48:30.531Z,99.90
2022-07-31T05:53:24.412Z,99.90
2022-07-31T05:58:39.657Z,99.90
2022-07-31T06:03:50.532Z,99.90
2022-07-31T06:08:48.785Z,99.90
2022-07-31T06:13:43.783Z,99.90
2022-07-31T06:18:46.448Z,99.90
2022-07-31T06:23:40.356Z,99.90
2022-07-31T06:28:59.293Z,99.90
2022-07-31T06:33:53.172Z,98.10
2022-07-31T06:38:50.973Z,96.30
2022-07-31T06:44:12.476Z,93.60
2022-07-31T06:49:26.872Z,92.10
2022-07-31T06:54:20.665Z,90.70
2022-07-31T06:59:23.658Z,89.00
2022-07-31T07:05:04.371Z,87.80
2022-07-31T07:09:49.803Z,86.10
2022-07-31T07:14:59.265Z,85.20
2022-07-31T07:19:55.003Z,83.60
2022-07-31T07:24:51.778Z,82.40
2022-07-31T07:29:49.702Z,81.40
2022-07-31T07:34:44.806Z,80.10
2022-07-31T07:39:52.881Z,81.80
2022-07-31T07:44:46.392Z,77.80
2022-07-31T07:49:40.124Z,78.30
2022-07-31T07:54:57.909Z,75.70
2022-07-31T08:00:08.891Z,76.30
2022-07-31T08:05:17.964Z,76.30
2022-07-31T08:10:14.861Z,75.90
2022-07-31T08:15:16.801Z,76.10
2022-07-31T08:20:33.568Z,72.90
2022-07-31T08:25:31.855Z,72.00
2022-07-31T08:30:29.164Z,73.00
2022-07-31T08:35:25.088Z,72.30
2022-07-31T08:40:19.713Z,71.60
2022-07-31T08:45:16.192Z,72.10
2022-07-31T08:50:16.930Z,70.60
2022-07-31T08:55:11.108Z,71.90
2022-07-31T09:00:26.282Z,72.40
2022-07-31T09:05:22.828Z,70.80
2022-07-31T09:10:25.050Z,67.90
2022-07-31T09:15:27.902Z,68.30
2022-07-31T09:20:24.025Z,67.30
2022-07-31T09:25:20.109Z,68.20
2022-07-31T09:30:14.497Z,62.50
2022-07-31T09:35:28.589Z,62.00
2022-07-31T09:40:22.858Z,61.00
2022-07-31T09:45:59.208Z,60.50
2022-07-31T09:50:58.532Z,59.00
2022-07-31T09:55:57.073Z,58.10
2022-07-31T10:00:54.550Z,58.60
2022-07-31T10:05:49.549Z,58.10
2022-07-31T10:10:47.871Z,57.20
2022-07-31T10:16:01.082Z,56.50
2022-07-31T10:21:13.682Z,56.80
2022-07-31T10:26:34.316Z,56.80
2022-07-31T10:31:37.570Z,55.90
2022-07-31T10:36:36.143Z,56.20
2022-07-31T10:42:05.282Z,54.70
2022-07-31T10:46:59.670Z,54.70
2022-07-31T10:52:04.650Z,55.40
2022-07-31T10:57:27.876Z,56.00
2022-07-31T11:02:50.803Z,55.50
2022-07-31T11:08:06.507Z,54.20
2022-07-31T11:13:36.635Z,53.70
2022-07-31T11:18:57.731Z,53.40
2022-07-31T11:24:02.260Z,52.60
2022-07-31T11:30:01.486Z,52.50
2022-07-31T11:34:14.853Z,52.90
2022-07-31T11:39:14.386Z,52.00
2022-07-31T11:44:11.233Z,51.30
2022-07-31T11:49:06.339Z,50.70
2022-07-31T11:54:00.526Z,50.50
2022-07-31T11:58:56.243Z,49.70
2022-07-31T12:03:52.083Z,50.00
2022-07-31T12:08:47.892Z,47.60
2022-07-31T12:13:42.171Z,49.40
2022-07-31T12:18:48.410Z,48.40
2022-07-31T12:23:46.665Z,46.90
2022-07-31T12:28:44.185Z,47.40
2022-07-31T12:33:45.756Z,46.00
2022-07-31T12:38:41.290Z,46.50
2022-07-31T12:43:50.884Z,47.40
2022-07-31T12:48:46.420Z,48.20
2022-07-31T12:53:40.154Z,48.30
2022-07-31T12:58:34.026Z,47.80
2022-07-31T13:03:39.027Z,51.10
2022-07-31T13:08:39.738Z,49.90
2022-07-31T13:13:33.223Z,46.80
2022-07-31T13:18:30.149Z,47.40
2022-07-31T13:23:23.730Z,46.90
2022-07-31T13:28:17.282Z,47.90
2022-07-31T13:33:10.853Z,50.10
2022-07-31T13:38:06.076Z,49.20
2022-07-31T13:42:59.829Z,48.80
2022-07-31T13:47:55.933Z,50.00
2022-07-31T13:52:53.292Z,50.00
2022-07-31T13:57:48.557Z,49.40
2022-07-31T14:02:44.677Z,48.50
2022-07-31T14:07:48.084Z,48.00
2022-07-31T14:12:45.783Z,48.10
2022-07-31T14:17:40.810Z,49.30
2022-07-31T14:22:34.349Z,48.70
2022-07-31T14:27:28.276Z,47.50
2022-07-31T14:32:22.573Z,49.80
2022-07-31T14:37:17.905Z,50.40
2022-07-31T14:42:11.622Z,49.20
2022-07-31T14:47:06.448Z,48.90
2022-07-31T14:52:00.394Z,49.30
2022-07-31T14:57:02.937Z,48.60
2022-07-31T15:01:56.869Z,48.60
2022-07-31T15:06:59.298Z,49.20
2022-07-31T15:12:02.621Z,49.20
2022-07-31T15:16:56.505Z,49.70
2022-07-31T15:22:10.325Z,49.40
2022-07-31T15:27:05.805Z,49.10
2022-07-31T15:31:59.964Z,50.10
2022-07-31T15:36:53.917Z,51.30
2022-07-31T15:41:47.599Z,52.90
2022-07-31T15:46:42.677Z,53.80
2022-07-31T15:51:36.342Z,54.60
2022-07-31T15:56:29.820Z,54.80
2022-07-31T16:01:23.819Z,54.80
2022-07-31T16:06:19.073Z,55.00
2022-07-31T16:11:21.909Z,55.30
2022-07-31T16:16:15.729Z,56.20
2022-07-31T16:21:09.320Z,56.70
2022-07-31T16:26:04.889Z,53.50
2022-07-31T16:30:58.656Z,53.10
2022-07-31T16:35:52.284Z,55.00
2022-07-31T16:40:46.152Z,56.40
2022-07-31T16:45:41.936Z,58.10
2022-07-31T16:50:35.926Z,60.10
2022-07-31T16:55:59.976Z,61.20
2022-07-31T17:00:45.459Z,59.00
2022-07-31T17:05:39.200Z,59.50
2022-07-31T17:10:32.908Z,61.60
2022-07-31T17:15:27.722Z,59.20
2022-07-31T17:20:24.460Z,58.00
2022-07-31T17:25:20.733Z,56.90
2022-07-31T17:30:14.991Z,57.80
2022-07-31T17:35:13.698Z,58.60
2022-07-31T17:40:33.665Z,58.00
2022-07-31T17:45:26.854Z,59.40
2022-07-31T17:50:40.396Z,60.80
2022-07-31T17:55:35.471Z,63.10
2022-07-31T18:00:32.403Z,63.10
2022-07-31T18:05:26.186Z,64.80
2022-07-31T18:10:32.507Z,66.90
2022-07-31T18:15:35.984Z,67.40
2022-07-31T18:20:29.881Z,66.60
2022-07-31T18:25:23.493Z,68.20
2022-07-31T18:30:17.200Z,71.70
2022-07-31T18:35:13.573Z,73.30
2022-07-31T18:40:08.810Z,74.20
2022-07-31T18:45:02.849Z,75.40
2022-07-31T18:50:58.654Z,77.20
2022-07-31T18:55:12.515Z,78.30
2022-07-31T19:00:08.893Z,79.50
2022-07-31T19:05:02.554Z,80.20
2022-07-31T19:09:56.148Z,80.80
2022-07-31T19:14:52.213Z,82.20
2022-07-31T19:19:54.759Z,82.40
2022-07-31T19:24:55.453Z,83.10
2022-07-31T19:29:50.781Z,85.70
2022-07-31T19:34:47.851Z,86.80
2022-07-31T19:39:43.900Z,87.90
2022-07-31T19:44:37.742Z,88.50
2022-07-31T19:49:37.866Z,89.30
2022-07-31T19:54:31.821Z,90.20
2022-07-31T19:59:25.367Z,91.10
2022-07-31T20:04:18.923Z,91.30
2022-07-31T20:09:13.931Z,91.10
2022-07-31T20:14:07.492Z,90.50
2022-07-31T20:19:01.458Z,91.00
